createdAt,value
2023-01-19T00:00:43.929Z,10.60
2023-01-19T00:01:46.154Z,13.40
2023-01-19T00:02:48.754Z,15.80
2023-01-19T00:03:51.241Z,11.77
2023-01-19T00:04:53.470Z,15.10
2023-01-19T00:05:55.898Z,11.82
2023-01-19T00:06:58.145Z,15.63
2023-01-19T00:08:14.746Z,10.98
2023-01-19T00:09:17.279Z,12.95
2023-01-19T00:10:19.539Z,12.70
2023-01-19T00:11:21.781Z,14.57
2023-01-19T00:12:24.522Z,12.00
2023-01-19T00:13:26.764Z,15.18
2023-01-19T00:14:28.949Z,14.65
2023-01-19T00:15:31.208Z,12.25
2023-01-19T00:16:33.633Z,11.43
2023-01-19T00:17:35.893Z,10.73
2023-01-19T00:18:38.108Z,12.25
2023-01-19T00:19:40.266Z,18.15
2023-01-19T00:20:44.887Z,10.68
2023-01-19T00:21:47.273Z,15.55
2023-01-19T00:22:50.986Z,11.02
2023-01-19T00:23:53.228Z,12.63
2023-01-19T00:24:55.647Z,11.82
2023-01-19T00:25:58.022Z,12.15
2023-01-19T00:27:01.645Z,11.50
2023-01-19T00:28:04.387Z,11.75
2023-01-19T00:29:07.926Z,11.73
2023-01-19T00:30:10.737Z,13.90
2023-01-19T00:31:13.085Z,19.10
2023-01-19T00:32:15.370Z,14.48
2023-01-19T00:33:17.791Z,12.70
2023-01-19T00:34:20.205Z,13.80
2023-01-19T00:35:22.421Z,11.85
2023-01-19T00:36:24.773Z,13.50
2023-01-19T00:37:27.132Z,14.68
2023-01-19T00:38:29.286Z,12.52
2023-01-19T00:39:31.787Z,12.90
2023-01-19T00:40:33.955Z,14.80
2023-01-19T00:41:55.222Z,12.60
2023-01-19T00:42:57.765Z,12.98
2023-01-19T00:44:00.294Z,13.77
2023-01-19T00:45:02.673Z,14.15
2023-01-19T00:46:04.980Z,14.30
2023-01-19T00:47:07.410Z,15.32
2023-01-19T00:48:09.843Z,16.05
2023-01-19T00:49:12.200Z,12.35
2023-01-19T00:50:19.035Z,15.77
2023-01-19T00:51:21.489Z,16.83
2023-01-19T00:52:23.689Z,16.50
2023-01-19T00:53:26.491Z,15.45
2023-01-19T00:54:28.661Z,15.65
2023-01-19T00:55:33.540Z,12.77
2023-01-19T00:56:36.611Z,14.40
2023-01-19T00:57:40.175Z,14.30
2023-01-19T00:58:42.357Z,14.27
2023-01-19T00:59:44.881Z,18.50
2023-01-19T01:00:47.354Z,16.25
2023-01-19T01:01:49.685Z,16.77
2023-01-19T01:02:53.205Z,12.70
2023-01-19T01:03:55.972Z,17.73
2023-01-19T01:04:58.199Z,16.17
2023-01-19T01:06:00.498Z,13.65
2023-01-19T01:07:03.129Z,13.18
2023-01-19T01:08:05.518Z,16.00
2023-01-19T01:09:11.954Z,15.82
2023-01-19T01:10:20.842Z,19.08
2023-01-19T01:11:23.207Z,12.60
2023-01-19T01:12:28.645Z,10.98
2023-01-19T01:13:31.740Z,15.50
2023-01-19T01:14:34.382Z,13.48
2023-01-19T01:15:36.565Z,14.68
2023-01-19T01:16:40.259Z,12.93
2023-01-19T01:17:47.527Z,14.45
2023-01-19T01:18:49.725Z,12.98
2023-01-19T01:19:52.580Z,17.60
2023-01-19T01:21:04.456Z,17.20
2023-01-19T01:22:07.779Z,16.42
2023-01-19T01:23:10.623Z,14.55
2023-01-19T01:24:12.888Z,11.68
2023-01-19T01:25:17.403Z,12.73
2023-01-19T01:26:19.679Z,14.15
2023-01-19T01:27:21.991Z,16.58
2023-01-19T01:28:24.677Z,20.35
2023-01-19T01:29:26.864Z,15.93
2023-01-19T01:30:29.032Z,13.15
2023-01-19T01:31:31.643Z,19.70
2023-01-19T01:32:33.944Z,13.63
2023-01-19T01:33:40.975Z,14.20
2023-01-19T01:34:44.197Z,12.80
2023-01-19T01:35:47.164Z,12.68
2023-01-19T01:36:49.559Z,17.88
2023-01-19T01:37:51.770Z,15.38
2023-01-19T01:38:54.442Z,16.38
2023-01-19T01:39:56.679Z,13.77
2023-01-19T01:40:58.902Z,17.75
2023-01-19T01:42:01.140Z,16.77
2023-01-19T01:43:03.741Z,19.27
2023-01-19T01:44:50.060Z,14.60
2023-01-19T01:45:57.806Z,15.55
2023-01-19T01:47:00.837Z,17.13
2023-01-19T01:48:09.868Z,18.67
2023-01-19T01:49:16.824Z,19.63
2023-01-19T01:50:25.260Z,15.30
2023-01-19T01:51:42.325Z,19.05
2023-01-19T01:53:07.699Z,14.80
2023-01-19T01:54:13.300Z,18.45
2023-01-19T01:55:17.349Z,17.13
2023-01-19T01:56:24.245Z,19.73
2023-01-19T01:57:28.136Z,20.45
2023-01-19T01:58:33.112Z,14.88
2023-01-19T01:59:40.126Z,19.27
2023-01-19T02:01:01.118Z,15.45
2023-01-19T02:02:28.396Z,20.10
2023-01-19T02:03:33.154Z,15.48
2023-01-19T02:04:35.372Z,17.90
2023-01-19T02:05:37.990Z,21.50
2023-01-19T02:06:58.944Z,21.58
2023-01-19T02:09:55.418Z,19.55
2023-01-19T02:11:17.825Z,21.50
2023-01-19T02:12:38.779Z,19.13
2023-01-19T02:14:45.966Z,19.17
2023-01-19T02:15:54.197Z,18.92
2023-01-19T02:16:56.846Z,21.17
2023-01-19T02:17:59.227Z,25.95
2023-01-19T02:19:01.478Z,19.33
2023-01-19T02:20:03.919Z,25.88
2023-01-19T02:21:10.667Z,22.63
2023-01-19T02:22:20.398Z,29.63
2023-01-19T02:23:44.390Z,19.10
2023-01-19T02:24:46.788Z,21.20
2023-01-19T02:25:49.708Z,21.05
2023-01-19T02:26:52.403Z,27.63
2023-01-19T02:27:55.076Z,28.15
2023-01-19T02:29:21.391Z,20.90
2023-01-19T02:30:24.167Z,25.45
2023-01-19T02:31:28.799Z,25.05
2023-01-19T02:32:31.389Z,23.45
2023-01-19T02:33:33.889Z,25.73
2023-01-19T02:34:36.428Z,27.40
2023-01-19T02:35:40.530Z,26.25
2023-01-19T02:37:06.850Z,24.13
2023-01-19T02:38:11.871Z,25.45
2023-01-19T02:39:15.928Z,24.75
2023-01-19T02:40:21.044Z,35.25
2023-01-19T02:41:28.507Z,28.15
2023-01-19T02:42:45.029Z,23.80
2023-01-19T02:43:49.224Z,28.70
2023-01-19T02:44:54.877Z,28.38
2023-01-19T02:45:57.523Z,28.98
2023-01-19T02:47:03.996Z,24.80
2023-01-19T02:48:07.255Z,26.02
2023-01-19T02:49:10.061Z,29.55
2023-01-19T02:50:43.076Z,27.25
2023-01-19T02:51:45.486Z,26.77
2023-01-19T02:52:48.818Z,26.52
2023-01-19T02:54:13.853Z,26.70
2023-01-19T02:55:28.012Z,28.83
2023-01-19T02:56:30.205Z,26.30
2023-01-19T02:57:57.310Z,29.83
2023-01-19T02:59:14.664Z,28.50
2023-01-19T03:00:41.352Z,30.02
2023-01-19T03:02:02.097Z,23.20
2023-01-19T03:03:30.811Z,23.55
2023-01-19T03:04:51.620Z,25.05
2023-01-19T03:06:13.473Z,22.88
2023-01-19T03:07:30.461Z,22.40
2023-01-19T03:08:55.000Z,24.25
2023-01-19T03:10:15.741Z,25.65
2023-01-19T03:11:18.679Z,26.27
2023-01-19T03:12:26.822Z,26.25
2023-01-19T03:13:41.573Z,29.75
2023-01-19T03:14:48.169Z,33.53
2023-01-19T03:15:56.036Z,30.17
2023-01-19T03:17:01.447Z,27.63
2023-01-19T03:18:08.240Z,26.38
2023-01-19T03:19:20.393Z,24.05
2023-01-19T03:20:25.466Z,27.52
2023-01-19T03:21:32.592Z,22.48
2023-01-19T03:22:35.124Z,24.80
2023-01-19T03:23:42.176Z,22.80
2023-01-19T03:24:47.821Z,27.27
2023-01-19T03:25:53.008Z,24.63
2023-01-19T03:27:04.400Z,26.38
2023-01-19T03:28:06.785Z,26.08
2023-01-19T03:29:11.767Z,26.70
2023-01-19T03:30:23.046Z,27.48
2023-01-19T03:31:29.053Z,25.20
2023-01-19T03:32:36.885Z,29.35
2023-01-19T03:33:45.026Z,27.02
2023-01-19T03:34:50.237Z,27.33
2023-01-19T03:36:03.733Z,24.25
2023-01-19T03:37:10.091Z,27.02
2023-01-19T03:38:17.226Z,24.75
2023-01-19T03:39:23.154Z,23.67
2023-01-19T03:40:32.471Z,25.77
2023-01-19T03:41:37.664Z,20.23
2023-01-19T03:42:41.273Z,23.67
2023-01-19T03:43:45.132Z,24.30
2023-01-19T03:44:50.645Z,27.77
2023-01-19T03:45:55.328Z,24.23
2023-01-19T03:46:59.792Z,23.52
2023-01-19T03:48:02.381Z,26.15
2023-01-19T03:49:05.012Z,21.30
2023-01-19T03:50:14.286Z,28.10
2023-01-19T03:51:17.977Z,24.77
2023-01-19T03:52:32.548Z,21.45
2023-01-19T03:53:35.303Z,20.65
2023-01-19T03:54:37.712Z,19.38
2023-01-19T03:55:42.685Z,23.77
2023-01-19T03:56:44.975Z,20.20
2023-01-19T03:57:47.156Z,23.73
2023-01-19T03:58:50.009Z,18.40
2023-01-19T03:59:53.400Z,21.52
2023-01-19T04:00:55.885Z,19.45
2023-01-19T04:01:58.167Z,22.85
2023-01-19T04:03:00.946Z,20.25
2023-01-19T04:04:03.424Z,25.70
2023-01-19T04:05:06.000Z,23.40
2023-01-19T04:06:09.989Z,20.70
2023-01-19T04:07:12.231Z,24.08
2023-01-19T04:08:14.598Z,20.90
2023-01-19T04:09:18.593Z,25.05
2023-01-19T04:10:22.391Z,24.48
2023-01-19T04:11:24.860Z,22.48
2023-01-19T04:12:27.266Z,20.60
2023-01-19T04:13:30.489Z,21.38
2023-01-19T04:14:33.039Z,20.67
2023-01-19T04:15:35.227Z,24.80
2023-01-19T04:16:37.654Z,20.30
2023-01-19T04:17:40.067Z,22.77
2023-01-19T04:18:42.445Z,22.67
2023-01-19T04:19:45.247Z,21.95
2023-01-19T04:20:47.426Z,23.15
2023-01-19T04:21:50.917Z,20.58
2023-01-19T04:22:53.094Z,21.35
2023-01-19T04:23:55.263Z,21.75
2023-01-19T04:24:57.600Z,23.83
2023-01-19T04:26:05.180Z,24.58
2023-01-19T04:27:07.565Z,23.55
2023-01-19T04:28:09.767Z,24.30
2023-01-19T04:29:14.049Z,22.05
2023-01-19T04:30:17.007Z,23.50
2023-01-19T04:31:19.539Z,18.77
2023-01-19T04:32:21.934Z,21.58
2023-01-19T04:33:24.602Z,22.45
2023-01-19T04:34:26.756Z,22.35
2023-01-19T04:35:29.339Z,23.00
2023-01-19T04:36:31.685Z,20.85
2023-01-19T04:37:33.936Z,21.75
2023-01-19T04:38:36.299Z,22.02
2023-01-19T04:39:38.464Z,21.55
2023-01-19T04:40:40.889Z,21.58
2023-01-19T04:41:43.630Z,18.15
2023-01-19T04:42:46.471Z,19.63
2023-01-19T04:43:49.263Z,19.65
2023-01-19T04:44:52.563Z,21.58
2023-01-19T04:45:54.935Z,21.10
2023-01-19T04:46:57.189Z,23.88
2023-01-19T04:47:59.603Z,16.73
2023-01-19T04:49:02.031Z,22.42
2023-01-19T04:50:05.887Z,18.75
2023-01-19T04:51:08.820Z,20.02
2023-01-19T04:52:11.322Z,20.52
2023-01-19T04:53:14.540Z,16.27
2023-01-19T04:54:16.742Z,16.17
2023-01-19T04:55:19.795Z,27.58
2023-01-19T04:56:21.987Z,23.00
2023-01-19T04:57:24.416Z,26.13
2023-01-19T04:58:26.685Z,23.05
2023-01-19T04:59:28.978Z,19.00
2023-01-19T05:00:31.588Z,23.20
2023-01-19T05:01:33.886Z,21.20
2023-01-19T05:02:36.602Z,19.90
2023-01-19T05:03:40.225Z,20.17
2023-01-19T05:04:42.437Z,24.67
2023-01-19T05:05:44.827Z,15.88
2023-01-19T05:06:46.965Z,24.20
2023-01-19T05:07:49.535Z,19.85
2023-01-19T05:08:51.711Z,24.30
2023-01-19T05:09:53.984Z,20.63
2023-01-19T05:10:57.607Z,21.27
2023-01-19T05:11:59.760Z,19.95
2023-01-19T05:13:02.853Z,22.60
2023-01-19T05:14:05.293Z,15.70
2023-01-19T05:15:09.558Z,16.73
2023-01-19T05:16:14.006Z,22.00
2023-01-19T05:17:16.411Z,18.67
2023-01-19T05:18:18.871Z,18.13
2023-01-19T05:19:21.224Z,18.25
2023-01-19T05:20:23.933Z,18.88
2023-01-19T05:21:26.622Z,18.83
2023-01-19T05:22:28.804Z,20.98
2023-01-19T05:23:32.606Z,17.38
2023-01-19T05:24:35.451Z,16.08
2023-01-19T05:25:38.720Z,21.10
2023-01-19T05:26:41.632Z,21.60
2023-01-19T05:27:44.732Z,20.42
2023-01-19T05:28:46.962Z,16.05
2023-01-19T05:29:49.396Z,23.90
2023-01-19T05:30:51.883Z,22.58
2023-01-19T05:31:54.266Z,24.25
2023-01-19T05:32:56.527Z,16.83
2023-01-19T05:33:58.673Z,16.88
2023-01-19T05:35:01.100Z,22.45
2023-01-19T05:36:04.365Z,15.52
2023-01-19T05:37:06.778Z,20.20
2023-01-19T05:38:09.409Z,15.77
2023-01-19T05:39:11.647Z,18.08
2023-01-19T05:40:14.051Z,15.65
2023-01-19T05:41:17.654Z,18.95
2023-01-19T05:42:19.901Z,16.92
2023-01-19T05:43:22.270Z,16.23
2023-01-19T05:44:24.439Z,18.10
2023-01-19T05:45:28.344Z,20.13
2023-01-19T05:46:33.609Z,17.48
2023-01-19T05:47:35.903Z,19.80
2023-01-19T05:48:38.642Z,16.98
2023-01-19T05:49:40.860Z,19.98
2023-01-19T05:50:43.325Z,20.48
2023-01-19T05:51:45.730Z,21.25
2023-01-19T05:52:47.984Z,16.35
2023-01-19T05:53:50.527Z,18.38
2023-01-19T05:54:54.599Z,21.02
2023-01-19T05:56:05.755Z,18.60
2023-01-19T05:57:09.260Z,17.58
2023-01-19T05:58:11.616Z,22.05
2023-01-19T05:59:15.269Z,14.82
2023-01-19T06:00:17.747Z,16.02
2023-01-19T06:01:19.926Z,15.20
2023-01-19T06:02:28.506Z,18.02
2023-01-19T06:03:31.802Z,14.23
2023-01-19T06:04:34.163Z,14.43
2023-01-19T06:05:38.425Z,20.00
2023-01-19T06:06:41.030Z,19.27
2023-01-19T06:07:43.254Z,17.42
2023-01-19T06:08:45.901Z,16.55
2023-01-19T06:09:48.092Z,16.95
2023-01-19T06:10:50.488Z,12.63
2023-01-19T06:11:54.194Z,20.98
2023-01-19T06:12:56.541Z,14.20
2023-01-19T06:13:58.829Z,14.40
2023-01-19T06:15:01.031Z,15.55
2023-01-19T06:16:03.646Z,11.43
2023-01-19T06:17:06.703Z,19.27
2023-01-19T06:18:09.498Z,12.13
2023-01-19T06:19:11.833Z,16.33
2023-01-19T06:20:14.196Z,17.90
2023-01-19T06:21:16.611Z,19.23
2023-01-19T06:22:18.743Z,14.55
2023-01-19T06:23:21.030Z,15.82
2023-01-19T06:24:24.300Z,14.98
2023-01-19T06:25:26.492Z,19.10
2023-01-19T06:26:29.141Z,12.13
2023-01-19T06:27:31.427Z,11.05
2023-01-19T06:28:33.610Z,12.00
2023-01-19T06:29:36.196Z,13.98
2023-01-19T06:30:38.477Z,13.18
2023-01-19T06:31:41.778Z,14.35
2023-01-19T06:32:44.266Z,15.23
2023-01-19T06:33:46.707Z,16.48
2023-01-19T06:34:49.262Z,15.05
2023-01-19T06:35:52.473Z,20.98
2023-01-19T06:36:58.290Z,12.32
2023-01-19T06:38:00.444Z,11.73
2023-01-19T06:39:06.021Z,11.70
2023-01-19T06:40:08.888Z,13.25
2023-01-19T06:41:11.060Z,13.73
2023-01-19T06:42:13.281Z,18.88
2023-01-19T06:43:15.500Z,17.35
2023-01-19T06:44:17.901Z,13.60
2023-01-19T06:45:20.120Z,11.48
2023-01-19T06:46:22.308Z,16.30
2023-01-19T06:47:24.533Z,15.88
2023-01-19T06:48:27.247Z,14.27
2023-01-19T06:49:29.607Z,12.50
2023-01-19T06:50:32.011Z,12.52
2023-01-19T06:51:34.438Z,13.57
2023-01-19T06:52:42.212Z,10.30
2023-01-19T06:53:44.730Z,14.43
2023-01-19T06:54:47.184Z,13.15
2023-01-19T06:55:49.373Z,10.57
2023-01-19T06:56:52.648Z,16.42
2023-01-19T06:58:01.323Z,17.45
2023-01-19T06:59:03.592Z,15.45
2023-01-19T07:00:08.419Z,15.90
2023-01-19T07:01:10.840Z,14.77
2023-01-19T07:02:26.571Z,13.75
2023-01-19T07:03:30.554Z,15.93
2023-01-19T07:04:34.114Z,13.93
2023-01-19T07:05:36.495Z,14.65
2023-01-19T07:06:38.687Z,10.10
2023-01-19T07:07:42.507Z,14.73
2023-01-19T07:08:44.754Z,13.75
2023-01-19T07:09:47.319Z,14.57
2023-01-19T07:11:26.140Z,13.80
2023-01-19T07:12:12.656Z,13.05
2023-01-19T07:13:15.835Z,13.23
2023-01-19T07:14:17.976Z,14.70
2023-01-19T07:15:21.739Z,14.45
2023-01-19T07:16:24.057Z,13.63
2023-01-19T07:17:26.482Z,13.70
2023-01-19T07:18:28.871Z,10.65
2023-01-19T07:19:31.224Z,22.50
2023-01-19T07:20:37.614Z,15.70
2023-01-19T07:21:39.961Z,10.55
2023-01-19T07:22:46.626Z,10.90
2023-01-19T07:23:50.165Z,15.07
2023-01-19T07:24:52.327Z,15.95
2023-01-19T07:25:54.661Z,13.02
2023-01-19T07:26:56.967Z,12.55
2023-01-19T07:28:00.104Z,16.80
2023-01-19T07:29:02.560Z,12.23
2023-01-19T07:30:11.480Z,14.32
2023-01-19T07:31:14.550Z,13.98
2023-01-19T07:32:16.834Z,11.98
2023-01-19T07:33:18.994Z,13.25
2023-01-19T07:34:21.494Z,16.55
2023-01-19T07:35:27.035Z,15.98
2023-01-19T07:36:29.423Z,15.35
2023-01-19T07:37:31.646Z,13.18
2023-01-19T07:38:33.857Z,14.77
2023-01-19T07:39:36.707Z,13.45
2023-01-19T07:40:39.148Z,13.60
2023-01-19T07:41:41.344Z,13.68
2023-01-19T07:42:51.011Z,13.45
2023-01-19T07:43:53.243Z,14.52
2023-01-19T07:44:55.424Z,10.20
2023-01-19T07:45:59.424Z,13.25
2023-01-19T07:47:01.597Z,13.43
2023-01-19T07:48:03.899Z,15.30
2023-01-19T07:49:06.268Z,15.32
2023-01-19T07:50:09.198Z,14.27
2023-01-19T07:51:19.029Z,12.70
2023-01-19T07:52:22.924Z,15.30
2023-01-19T07:53:25.092Z,13.80
2023-01-19T07:54:27.507Z,16.98
2023-01-19T07:55:29.818Z,13.77
2023-01-19T07:56:33.893Z,15.35
2023-01-19T07:57:36.625Z,13.18
2023-01-19T07:58:39.271Z,13.63
2023-01-19T07:59:41.628Z,15.18
2023-01-19T08:00:43.843Z,12.57
2023-01-19T08:01:46.505Z,15.32
2023-01-19T08:02:51.847Z,13.02
2023-01-19T08:03:54.075Z,10.18
2023-01-19T08:04:56.625Z,12.80
2023-01-19T08:05:59.900Z,13.50
2023-01-19T08:07:02.492Z,14.07
2023-01-19T08:08:05.573Z,14.13
2023-01-19T08:09:08.474Z,12.98
2023-01-19T08:10:15.636Z,15.75
2023-01-19T08:11:17.826Z,12.65
2023-01-19T08:12:20.075Z,13.75
2023-01-19T08:13:22.476Z,15.15
2023-01-19T08:14:24.692Z,21.55
2023-01-19T08:15:27.225Z,17.52
2023-01-19T08:16:29.476Z,22.05
2023-01-19T08:17:31.848Z,17.27
2023-01-19T08:18:34.102Z,16.35
2023-01-19T08:19:36.262Z,14.50
2023-01-19T08:20:38.536Z,16.33
2023-01-19T08:21:41.131Z,18.00
2023-01-19T08:22:43.534Z,12.65
2023-01-19T08:23:52.793Z,20.17
2023-01-19T08:24:55.031Z,15.45
2023-01-19T08:25:57.248Z,19.38
2023-01-19T08:27:01.188Z,12.93
2023-01-19T08:28:05.441Z,15.15
2023-01-19T08:29:07.620Z,12.98
2023-01-19T08:30:10.595Z,16.10
2023-01-19T08:31:20.356Z,16.70
2023-01-19T08:32:25.119Z,12.00
2023-01-19T08:33:27.322Z,11.82
2023-01-19T08:34:32.427Z,11.48
2023-01-19T08:35:37.479Z,11.75
2023-01-19T08:36:39.617Z,9.52
2023-01-19T08:37:41.812Z,12.73
2023-01-19T08:38:47.673Z,10.10
2023-01-19T08:39:50.080Z,12.95
2023-01-19T08:40:52.236Z,11.30
2023-01-19T08:41:54.538Z,11.95
2023-01-19T08:43:03.619Z,12.65
2023-01-19T08:44:06.011Z,10.65
2023-01-19T08:45:09.330Z,13.40
2023-01-19T08:46:12.052Z,11.45
2023-01-19T08:47:14.335Z,11.18
2023-01-19T08:48:19.320Z,14.00
2023-01-19T08:49:21.494Z,13.48
2023-01-19T08:50:23.695Z,14.13
2023-01-19T08:51:26.096Z,11.05
2023-01-19T08:52:29.352Z,12.50
2023-01-19T08:53:31.804Z,12.93
2023-01-19T08:54:33.973Z,10.70
2023-01-19T08:55:36.531Z,11.30
2023-01-19T08:56:38.856Z,12.52
2023-01-19T08:57:41.040Z,11.30
2023-01-19T08:58:45.710Z,9.35
2023-01-19T08:59:47.995Z,8.77
2023-01-19T09:00:52.526Z,10.80
2023-01-19T09:01:55.118Z,8.52
2023-01-19T09:02:57.885Z,11.38
2023-01-19T09:04:00.228Z,9.13
2023-01-19T09:05:02.463Z,9.23
2023-01-19T09:06:08.554Z,11.15
2023-01-19T09:07:11.169Z,10.30
2023-01-19T09:08:14.660Z,9.52
2023-01-19T09:09:16.808Z,8.55
2023-01-19T09:10:19.215Z,8.52
2023-01-19T09:11:21.401Z,9.55
2023-01-19T09:12:23.607Z,8.27
2023-01-19T09:13:26.377Z,9.27
2023-01-19T09:14:28.542Z,9.52
2023-01-19T09:15:33.895Z,8.63
2023-01-19T09:16:36.129Z,10.35
2023-01-19T09:17:38.299Z,9.55
2023-01-19T09:18:40.934Z,10.25
2023-01-19T09:19:43.097Z,10.80
2023-01-19T09:20:47.443Z,9.30
2023-01-19T09:21:49.652Z,8.63
2023-01-19T09:22:51.963Z,10.68
2023-01-19T09:23:55.199Z,7.88
2023-01-19T09:24:57.347Z,8.98
2023-01-19T09:26:02.037Z,15.60
2023-01-19T09:27:04.592Z,10.38
2023-01-19T09:28:09.218Z,14.05
2023-01-19T09:29:11.744Z,13.68
2023-01-19T09:30:14.093Z,10.23
2023-01-19T09:31:16.346Z,9.77
2023-01-19T09:32:20.564Z,10.02
2023-01-19T09:33:23.367Z,16.10
2023-01-19T09:34:26.176Z,16.55
2023-01-19T09:35:28.344Z,15.55
2023-01-19T09:36:30.966Z,10.82
2023-01-19T09:37:33.135Z,11.48
2023-01-19T09:38:35.320Z,8.45
2023-01-19T09:39:37.945Z,7.93
2023-01-19T09:40:55.143Z,10.73
2023-01-19T09:42:14.613Z,24.17
2023-01-19T09:43:35.320Z,10.30
2023-01-19T09:44:39.511Z,6.60
2023-01-19T09:45:50.401Z,10.32
2023-01-19T09:46:52.634Z,9.52
2023-01-19T09:47:57.170Z,8.80
2023-01-19T09:49:05.308Z,11.30
2023-01-19T09:50:20.893Z,10.20
2023-01-19T09:51:28.434Z,8.43
2023-01-19T09:52:35.951Z,11.27
2023-01-19T09:53:50.521Z,10.18
2023-01-19T09:54:58.251Z,8.32
2023-01-19T09:56:00.469Z,10.45
2023-01-19T09:57:02.963Z,7.60
2023-01-19T09:58:12.326Z,11.18
2023-01-19T09:59:36.804Z,8.07
2023-01-19T10:00:39.786Z,10.23
2023-01-19T10:02:07.115Z,8.48
2023-01-19T10:03:17.075Z,9.13
2023-01-19T10:04:30.179Z,12.73
2023-01-19T10:05:41.814Z,10.43
2023-01-19T10:06:44.401Z,10.18
2023-01-19T10:07:55.898Z,10.75
2023-01-19T10:09:19.184Z,13.95
2023-01-19T10:10:28.668Z,9.50
2023-01-19T10:11:51.288Z,10.02
2023-01-19T10:13:15.230Z,11.88
2023-01-19T10:14:28.121Z,9.05
2023-01-19T10:15:38.172Z,8.43
2023-01-19T10:16:53.144Z,10.95
2023-01-19T10:18:34.967Z,10.90
2023-01-19T10:19:46.448Z,14.05
2023-01-19T10:20:56.536Z,8.57
2023-01-19T10:22:04.208Z,10.35
2023-01-19T10:23:21.952Z,11.10
2023-01-19T10:24:29.097Z,7.78
2023-01-19T10:25:32.045Z,8.32
2023-01-19T10:26:38.932Z,7.63
2023-01-19T10:27:42.972Z,9.48
2023-01-19T10:28:48.215Z,9.23
2023-01-19T10:29:50.774Z,11.68
2023-01-19T10:30:55.048Z,10.00
2023-01-19T10:32:21.187Z,10.43
2023-01-19T10:33:23.660Z,9.40
2023-01-19T10:34:25.849Z,10.93
2023-01-19T10:35:29.915Z,11.23
2023-01-19T10:36:38.186Z,9.68
2023-01-19T10:37:44.932Z,7.47
2023-01-19T10:38:48.027Z,11.00
2023-01-19T10:39:56.171Z,12.23
2023-01-19T10:41:05.301Z,10.23
2023-01-19T10:42:12.955Z,8.20
2023-01-19T10:43:36.074Z,13.07
2023-01-19T10:44:38.563Z,10.27
2023-01-19T10:45:40.795Z,11.10
2023-01-19T10:46:47.222Z,13.63
2023-01-19T10:47:50.385Z,10.55
2023-01-19T10:48:54.162Z,9.77
2023-01-19T10:49:56.545Z,9.35
2023-01-19T10:51:06.240Z,7.72
2023-01-19T10:52:31.821Z,6.20
2023-01-19T10:53:34.069Z,6.90
2023-01-19T10:54:37.588Z,8.85
2023-01-19T10:55:40.305Z,13.00
2023-01-19T10:56:43.450Z,8.65
2023-01-19T10:57:49.498Z,7.85
2023-01-19T10:58:51.702Z,8.85
2023-01-19T10:59:53.916Z,8.98
2023-01-19T11:01:14.119Z,9.93
2023-01-19T11:02:26.730Z,9.57
2023-01-19T11:03:31.416Z,8.88
2023-01-19T11:04:33.606Z,8.73
2023-01-19T11:05:35.980Z,9.60
2023-01-19T11:06:38.105Z,10.52
2023-01-19T11:07:40.275Z,9.85
2023-01-19T11:08:44.184Z,14.40
2023-01-19T11:09:48.042Z,18.08
2023-01-19T11:10:58.230Z,8.60
2023-01-19T11:12:00.587Z,7.93
2023-01-19T11:13:12.948Z,9.45
2023-01-19T11:14:22.088Z,10.35
2023-01-19T11:15:27.512Z,10.55
2023-01-19T11:16:32.268Z,9.15
2023-01-19T11:17:34.631Z,8.88
2023-01-19T11:18:39.292Z,9.80
2023-01-19T11:19:41.603Z,8.57
2023-01-19T11:20:53.368Z,13.07
2023-01-19T11:22:11.364Z,11.05
2023-01-19T11:23:24.678Z,7.57
2023-01-19T11:24:26.989Z,15.95
2023-01-19T11:25:32.763Z,8.30
2023-01-19T11:26:41.188Z,11.43
2023-01-19T11:27:51.626Z,8.30
2023-01-19T11:28:56.703Z,11.07
2023-01-19T11:30:10.383Z,12.40
2023-01-19T11:31:15.387Z,7.97
2023-01-19T11:32:22.806Z,11.55
2023-01-19T11:33:37.595Z,11.52
2023-01-19T11:34:39.876Z,9.27
2023-01-19T11:35:42.057Z,9.88
2023-01-19T11:36:59.485Z,10.15
2023-01-19T11:38:16.816Z,6.93
2023-01-19T11:39:28.326Z,9.52
2023-01-19T11:40:31.388Z,9.57
2023-01-19T11:41:37.363Z,10.85
2023-01-19T11:42:39.581Z,11.10
2023-01-19T11:43:48.964Z,12.57
2023-01-19T11:44:57.897Z,10.10
2023-01-19T11:46:00.333Z,7.22
2023-01-19T11:47:10.372Z,9.25
2023-01-19T11:48:23.812Z,9.95
2023-01-19T11:49:32.000Z,8.15
2023-01-19T11:50:42.632Z,12.68
2023-01-19T11:51:56.446Z,9.10
2023-01-19T11:53:11.375Z,9.70
2023-01-19T11:54:29.786Z,8.70
2023-01-19T11:55:49.766Z,12.23
2023-01-19T11:56:53.918Z,7.88
2023-01-19T11:57:56.271Z,7.68
2023-01-19T11:58:58.876Z,11.65
2023-01-19T12:00:05.358Z,9.35
2023-01-19T12:01:27.884Z,9.30
2023-01-19T12:02:46.897Z,13.88
2023-01-19T12:03:54.882Z,12.02
2023-01-19T12:05:05.505Z,11.75
2023-01-19T12:06:12.236Z,11.95
2023-01-19T12:07:30.160Z,10.88
2023-01-19T12:08:39.399Z,9.10
2023-01-19T12:09:53.959Z,7.97
2023-01-19T12:10:58.713Z,8.77
2023-01-19T12:12:08.027Z,8.80
2023-01-19T12:13:23.194Z,10.25
2023-01-19T12:14:40.171Z,11.95
2023-01-19T12:15:44.554Z,11.95
2023-01-19T12:16:47.079Z,8.10
2023-01-19T12:17:51.388Z,9.27
2023-01-19T12:18:59.378Z,9.40
2023-01-19T12:20:31.426Z,9.90
2023-01-19T12:21:33.609Z,8.05
2023-01-19T12:22:49.363Z,9.10
2023-01-19T12:24:12.502Z,10.57
2023-01-19T12:25:24.764Z,9.68
2023-01-19T12:26:35.823Z,10.98
2023-01-19T12:27:40.444Z,8.63
2023-01-19T12:28:46.594Z,11.13
2023-01-19T12:29:49.053Z,12.05
2023-01-19T12:30:52.207Z,11.18
2023-01-19T12:32:13.210Z,9.82
2023-01-19T12:33:30.100Z,8.55
2023-01-19T12:34:41.261Z,8.95
2023-01-19T12:36:04.434Z,8.90
2023-01-19T12:37:30.971Z,9.65
2023-01-19T12:39:03.977Z,11.07
2023-01-19T12:40:27.878Z,9.25
2023-01-19T12:41:36.953Z,10.45
2023-01-19T12:42:46.751Z,9.93
2023-01-19T12:44:12.200Z,10.40
2023-01-19T12:45:23.229Z,9.73
2023-01-19T12:46:30.996Z,10.50
2023-01-19T12:47:33.851Z,9.40
2023-01-19T12:48:36.365Z,12.57
2023-01-19T12:49:38.473Z,9.43
2023-01-19T12:50:46.499Z,12.30
2023-01-19T12:51:50.905Z,9.00
2023-01-19T12:52:59.349Z,8.57
2023-01-19T12:54:05.630Z,7.35
2023-01-19T12:55:14.678Z,7.95
2023-01-19T12:56:17.794Z,7.47
2023-01-19T12:57:29.032Z,8.30
2023-01-19T12:58:31.927Z,8.45
2023-01-19T12:59:37.498Z,9.57
2023-01-19T13:00:42.993Z,12.98
2023-01-19T13:02:20.310Z,11.30
2023-01-19T13:03:44.723Z,8.15
2023-01-19T13:05:07.040Z,11.00
2023-01-19T13:06:09.453Z,8.82
2023-01-19T13:07:13.669Z,11.45
2023-01-19T13:08:18.338Z,10.20
2023-01-19T13:09:30.848Z,13.07
2023-01-19T13:11:09.804Z,8.63
2023-01-19T13:12:14.755Z,9.95
2023-01-19T13:13:21.176Z,7.97
2023-01-19T13:14:37.875Z,13.48
2023-01-19T13:15:40.130Z,7.40
2023-01-19T13:16:47.905Z,12.18
2023-01-19T13:17:52.795Z,11.10
2023-01-19T13:18:56.774Z,7.88
2023-01-19T13:20:24.603Z,9.43
2023-01-19T13:21:29.878Z,8.43
2023-01-19T13:22:49.786Z,8.68
2023-01-19T13:23:56.281Z,10.20
2023-01-19T13:25:26.717Z,8.60
2023-01-19T13:26:42.299Z,12.60
2023-01-19T13:27:44.731Z,8.43
2023-01-19T13:28:52.040Z,9.85
2023-01-19T13:29:54.233Z,7.72
2023-01-19T13:31:00.346Z,8.60
2023-01-19T13:32:12.713Z,9.30
2023-01-19T13:33:22.605Z,10.43
2023-01-19T13:34:27.802Z,9.32
2023-01-19T13:35:30.036Z,12.45
2023-01-19T13:36:36.317Z,10.13
2023-01-19T13:37:44.691Z,10.32
2023-01-19T13:38:49.724Z,9.48
2023-01-19T13:39:54.822Z,7.22
2023-01-19T13:41:01.640Z,8.15
2023-01-19T13:42:09.235Z,13.05
2023-01-19T13:43:34.712Z,8.98
2023-01-19T13:44:51.476Z,10.30
2023-01-19T13:45:54.221Z,7.07
2023-01-19T13:46:59.677Z,7.97
2023-01-19T13:48:06.566Z,12.35
2023-01-19T13:49:35.444Z,12.55
2023-01-19T13:50:40.700Z,10.55
2023-01-19T13:51:42.870Z,10.98
2023-01-19T13:52:45.845Z,8.68
2023-01-19T13:53:55.970Z,10.05
2023-01-19T13:55:03.073Z,9.98
2023-01-19T13:56:10.013Z,8.13
2023-01-19T13:57:42.703Z,12.10
2023-01-19T13:59:01.192Z,9.25
2023-01-19T14:00:07.202Z,9.07
2023-01-19T14:01:23.408Z,7.15
2023-01-19T14:02:26.224Z,9.02
2023-01-19T14:03:28.629Z,8.50
2023-01-19T14:04:33.754Z,8.20
2023-01-19T14:05:38.635Z,9.25
2023-01-19T14:06:46.269Z,10.32
2023-01-19T14:07:59.074Z,9.57
2023-01-19T14:09:18.564Z,8.68
2023-01-19T14:10:20.941Z,13.07
2023-01-19T14:11:23.094Z,8.35
2023-01-19T14:12:25.744Z,8.70
2023-01-19T14:13:40.227Z,9.00
2023-01-19T14:14:44.345Z,9.30
2023-01-19T14:15:48.933Z,8.80
2023-01-19T14:16:51.411Z,11.32
2023-01-19T14:18:18.120Z,11.27
2023-01-19T14:19:20.297Z,7.43
2023-01-19T14:20:30.492Z,9.70